Airport View

Enter AWOS ICAO identifier for current METAR.

ex. KFNL

KHOB 251650Z 21010KT 10SM SKC 26/02 A2990

25 Oct 2020 17:13

Frequency: 119.75

Phone: 575-393-8418

Other Area AWOS: KGNC - KE11 - KINK - KCNM

TAF KHOB 251124Z 2512/2612 22008KT P6SM BKN250 FM251700 22016G25KT P6SM BKN250 FM260000 05020G29KT P6SM BKN200 FM260400 04020G28KT P6SM OVC010